createdAt,value
2022-11-02T00:02:56.406Z,9.59
2022-11-02T00:05:58.041Z,9.57
2022-11-02T00:09:02.547Z,9.58
2022-11-02T00:12:04.267Z,9.62
2022-11-02T00:15:06.747Z,9.62
2022-11-02T00:18:11.029Z,9.63
2022-11-02T00:21:13.446Z,9.63
2022-11-02T00:24:15.180Z,9.57
2022-11-02T00:27:16.842Z,9.56
2022-11-02T00:30:18.729Z,9.55
2022-11-02T00:33:21.707Z,9.54
2022-11-02T00:36:26.313Z,9.53
2022-11-02T00:39:28.057Z,9.51
2022-11-02T00:42:29.668Z,9.48
2022-11-02T00:45:31.346Z,9.51
2022-11-02T00:48:34.197Z,9.50
2022-11-02T00:51:35.920Z,9.53
2022-11-02T00:54:37.417Z,9.49
2022-11-02T00:57:39.707Z,9.48
2022-11-02T01:00:41.392Z,9.46
2022-11-02T01:03:44.276Z,9.42
2022-11-02T01:06:46.254Z,9.44
2022-11-02T01:09:49.961Z,9.43
2022-11-02T01:12:51.430Z,9.43
2022-11-02T01:15:53.010Z,9.42
2022-11-02T01:18:56.583Z,9.43
2022-11-02T01:21:58.298Z,9.44
2022-11-02T01:24:59.891Z,9.46
2022-11-02T01:28:01.701Z,9.47
2022-11-02T01:31:03.687Z,9.46
2022-11-02T01:34:06.439Z,9.48
2022-11-02T01:37:08.062Z,9.48
2022-11-02T01:40:10.192Z,9.48
2022-11-02T01:43:24.844Z,9.50
2022-11-02T01:46:32.156Z,9.47
2022-11-02T01:49:40.275Z,9.49
2022-11-02T01:52:42.288Z,9.51
2022-11-02T01:55:45.000Z,9.55
2022-11-02T01:58:49.231Z,9.54
2022-11-02T02:01:50.911Z,9.56
2022-11-02T02:04:55.835Z,9.56
2022-11-02T02:08:01.228Z,9.54
2022-11-02T02:11:03.299Z,9.55
2022-11-02T02:14:06.552Z,9.60
2022-11-02T02:17:18.608Z,9.62
2022-11-02T02:20:26.323Z,9.62
2022-11-02T02:23:42.365Z,9.56
2022-11-02T02:27:00.828Z,9.45
2022-11-02T02:30:05.777Z,9.40
2022-11-02T02:33:10.894Z,9.33
2022-11-02T02:36:16.225Z,9.27
2022-11-02T02:39:20.157Z,9.24
2022-11-02T02:42:27.958Z,9.24
2022-11-02T02:45:33.574Z,9.24
2022-11-02T02:48:37.366Z,9.24
2022-11-02T02:51:41.382Z,9.25
2022-11-02T02:54:45.355Z,9.25
2022-11-02T02:57:47.005Z,9.24
2022-11-02T03:00:50.542Z,9.16
2022-11-02T03:03:52.127Z,9.08
2022-11-02T03:06:55.271Z,9.06
2022-11-02T03:10:01.543Z,9.04
2022-11-02T03:13:10.675Z,9.06
2022-11-02T03:16:21.322Z,9.07
2022-11-02T03:19:24.825Z,9.06
2022-11-02T03:22:31.110Z,9.07
2022-11-02T03:25:38.364Z,9.05
2022-11-02T03:28:45.201Z,9.09
2022-11-02T03:31:54.437Z,9.07
2022-11-02T03:34:58.031Z,9.08
2022-11-02T03:38:02.030Z,9.07
2022-11-02T03:41:05.128Z,9.07
2022-11-02T03:44:07.606Z,9.09
2022-11-02T03:47:12.289Z,9.09
2022-11-02T03:50:16.972Z,9.09
2022-11-02T03:53:21.248Z,9.08
2022-11-02T03:56:25.932Z,9.11
2022-11-02T03:59:32.796Z,9.10
2022-11-02T04:02:36.572Z,9.11
2022-11-02T04:05:38.277Z,9.11
2022-11-02T04:08:41.275Z,9.11
2022-11-02T04:12:01.373Z,9.09
2022-11-02T04:15:03.173Z,9.08
2022-11-02T04:18:25.128Z,9.11
2022-11-02T04:21:26.985Z,9.10
2022-11-02T04:24:47.027Z,9.10
2022-11-02T04:27:49.481Z,9.07
2022-11-02T04:30:51.049Z,9.05
2022-11-02T04:33:54.281Z,9.06
2022-11-02T04:36:55.824Z,9.05
2022-11-02T04:39:57.461Z,9.06
2022-11-02T04:42:59.131Z,9.08
2022-11-02T04:46:00.839Z,9.00
2022-11-02T04:49:04.250Z,8.98
2022-11-02T04:52:05.950Z,9.02
2022-11-02T04:55:08.115Z,9.00
2022-11-02T04:58:09.886Z,9.02
2022-11-02T05:01:14.229Z,9.04
2022-11-02T05:04:17.457Z,9.05
2022-11-02T05:07:20.013Z,9.10
2022-11-02T05:10:21.743Z,9.14
2022-11-02T05:13:23.523Z,9.10
2022-11-02T05:16:25.218Z,9.09
2022-11-02T05:19:28.300Z,9.08
2022-11-02T05:22:30.689Z,9.06
2022-11-02T05:25:32.519Z,9.07
2022-11-02T05:28:34.121Z,9.04
2022-11-02T05:31:35.687Z,9.03
2022-11-02T05:34:38.705Z,8.94
2022-11-02T05:37:40.201Z,8.98
2022-11-02T05:40:41.959Z,8.95
2022-11-02T05:43:43.496Z,9.02
2022-11-02T05:46:45.026Z,9.04
2022-11-02T05:49:47.972Z,9.07
2022-11-02T05:52:49.522Z,9.07
2022-11-02T05:55:57.036Z,9.12
2022-11-02T05:58:58.706Z,9.11
2022-11-02T06:02:00.544Z,9.16
2022-11-02T06:05:03.794Z,9.14
2022-11-02T06:08:05.527Z,9.11
2022-11-02T06:11:07.402Z,9.21
2022-11-02T06:14:11.930Z,9.32
2022-11-02T06:17:13.377Z,9.32
2022-11-02T06:20:16.405Z,9.47
2022-11-02T06:23:20.003Z,9.42
2022-11-02T06:26:21.897Z,9.41
2022-11-02T06:29:23.482Z,9.39
2022-11-02T06:32:25.151Z,9.38
2022-11-02T06:35:28.024Z,9.41
2022-11-02T06:38:29.875Z,9.44
2022-11-02T06:41:31.531Z,9.52
2022-11-02T06:44:33.081Z,9.57
2022-11-02T06:47:35.784Z,9.51
2022-11-02T06:50:38.784Z,9.49
2022-11-02T06:53:40.241Z,9.50
2022-11-02T06:56:41.844Z,9.45
2022-11-02T06:59:43.524Z,9.46
2022-11-02T07:02:45.318Z,9.43
2022-11-02T07:05:52.347Z,9.47
2022-11-02T07:08:54.412Z,9.59
2022-11-02T07:11:56.524Z,9.61
2022-11-02T07:14:58.203Z,9.61
2022-11-02T07:17:59.932Z,9.61
2022-11-02T07:21:02.876Z,9.66
2022-11-02T07:24:05.007Z,9.64
2022-11-02T07:27:06.572Z,9.64
2022-11-02T07:30:08.565Z,9.69
2022-11-02T07:33:10.282Z,9.80
2022-11-02T07:36:13.522Z,9.85
2022-11-02T07:39:15.132Z,9.92
2022-11-02T07:42:16.760Z,9.96
2022-11-02T07:45:18.481Z,10.04
2022-11-02T07:48:20.277Z,10.10
2022-11-02T07:51:23.379Z,10.18
2022-11-02T07:54:26.458Z,10.29
2022-11-02T07:57:28.271Z,10.41
2022-11-02T08:00:30.713Z,10.51
2022-11-02T08:03:32.244Z,10.59
2022-11-02T08:06:36.224Z,10.64
2022-11-02T08:09:37.791Z,10.70
2022-11-02T08:12:39.520Z,10.77
2022-11-02T08:15:41.356Z,10.82
2022-11-02T08:18:42.979Z,10.85
2022-11-02T08:21:46.341Z,10.85
2022-11-02T08:24:47.937Z,10.91
2022-11-02T08:27:49.608Z,10.91
2022-11-02T08:30:51.583Z,10.92
2022-11-02T08:33:54.149Z,10.92
2022-11-02T08:36:57.529Z,10.96
2022-11-02T08:40:00.383Z,11.00
2022-11-02T08:43:03.232Z,11.01
2022-11-02T08:46:20.416Z,11.07
2022-11-02T08:49:22.738Z,11.12
2022-11-02T08:52:25.838Z,11.10
2022-11-02T08:55:27.668Z,11.09
2022-11-02T08:58:29.558Z,11.07
2022-11-02T09:01:31.451Z,11.10
2022-11-02T09:04:33.172Z,11.10
2022-11-02T09:07:37.676Z,11.12
2022-11-02T09:10:39.407Z,11.13
2022-11-02T09:13:41.540Z,11.16
2022-11-02T09:16:43.156Z,11.22
2022-11-02T09:19:44.787Z,11.25
2022-11-02T09:22:47.798Z,11.33
2022-11-02T09:25:49.282Z,11.48
2022-11-02T09:28:50.915Z,11.53
2022-11-02T09:31:52.459Z,11.42
2022-11-02T09:34:54.105Z,11.33
2022-11-02T09:37:57.476Z,11.28
2022-11-02T09:41:06.459Z,11.25
2022-11-02T09:44:11.433Z,11.26
2022-11-02T09:48:10.725Z,11.33
2022-11-02T09:50:40.895Z,11.35
2022-11-02T09:53:49.438Z,11.39
2022-11-02T09:56:51.625Z,11.48
2022-11-02T09:59:53.387Z,11.51
2022-11-02T10:02:57.356Z,11.44
2022-11-02T10:06:00.334Z,11.54
2022-11-02T10:09:06.579Z,11.57
2022-11-02T10:12:11.809Z,11.65
2022-11-02T10:15:16.427Z,11.59
2022-11-02T10:18:19.900Z,11.55
2022-11-02T10:21:25.817Z,11.49
2022-11-02T10:24:34.799Z,11.69
2022-11-02T10:27:38.052Z,11.51
2022-11-02T10:30:40.443Z,11.35
2022-11-02T10:33:42.226Z,11.32
2022-11-02T10:36:47.406Z,11.50
2022-11-02T10:39:56.881Z,11.39
2022-11-02T10:43:04.589Z,11.31
2022-11-02T10:46:24.228Z,11.32
2022-11-02T10:49:35.255Z,11.44
2022-11-02T10:52:37.999Z,11.81
2022-11-02T10:55:45.781Z,12.03
2022-11-02T10:58:52.726Z,12.32
2022-11-02T11:02:06.991Z,12.45
2022-11-02T11:05:14.385Z,12.39
2022-11-02T11:08:28.020Z,12.51
2022-11-02T11:11:32.985Z,12.63
2022-11-02T11:21:22.013Z,12.42
2022-11-02T11:24:25.790Z,12.38
2022-11-02T11:27:28.879Z,12.35
2022-11-02T11:30:59.411Z,12.41
2022-11-02T11:33:54.530Z,12.40
2022-11-02T11:37:04.489Z,12.35
2022-11-02T11:40:12.356Z,12.32
2022-11-02T11:43:16.927Z,12.31
2022-11-02T11:46:18.555Z,12.41
2022-11-02T11:49:31.053Z,12.45
2022-11-02T11:52:38.705Z,12.46
2022-11-02T11:55:46.268Z,12.24
2022-11-02T11:58:52.269Z,12.25
2022-11-02T12:01:56.708Z,12.15
2022-11-02T12:05:00.292Z,12.02
2022-11-02T12:08:19.718Z,11.95
2022-11-02T12:11:35.922Z,11.78
2022-11-02T12:14:45.197Z,11.68
2022-11-02T12:17:59.953Z,11.64
2022-11-02T12:21:15.478Z,11.72
2022-11-02T12:24:25.070Z,11.61
2022-11-02T12:27:33.186Z,11.79
2022-11-02T12:30:43.643Z,11.73
2022-11-02T12:33:51.114Z,11.73
2022-11-02T12:43:38.785Z,12.15
2022-11-02T12:46:48.703Z,12.31
2022-11-02T12:49:57.170Z,12.35
2022-11-02T12:53:08.365Z,12.37
2022-11-02T12:56:13.482Z,12.44
2022-11-02T12:59:17.738Z,12.45
2022-11-02T13:02:24.278Z,12.54
2022-11-02T13:05:29.240Z,12.72
2022-11-02T13:08:34.873Z,12.74
2022-11-02T13:11:37.821Z,12.53
2022-11-02T13:14:41.322Z,12.33
2022-11-02T13:17:47.732Z,12.15
2022-11-02T13:20:52.594Z,12.16
2022-11-02T13:23:56.652Z,12.35
2022-11-02T13:27:13.962Z,12.46
2022-11-02T13:30:17.543Z,12.45
2022-11-02T13:33:23.851Z,12.46
2022-11-02T13:36:25.533Z,12.35
2022-11-02T13:39:31.752Z,12.22
2022-11-02T13:42:55.298Z,12.06
2022-11-02T13:46:17.840Z,12.01
2022-11-02T13:49:23.063Z,11.92
2022-11-02T13:52:27.968Z,12.01
2022-11-02T13:55:41.497Z,12.20
2022-11-02T13:58:48.804Z,12.32
2022-11-02T14:01:52.891Z,12.41
2022-11-02T14:04:56.219Z,12.45
2022-11-02T14:08:01.011Z,12.45
2022-11-02T14:11:04.614Z,12.44
2022-11-02T14:14:07.597Z,12.47
2022-11-02T14:17:13.243Z,12.45
2022-11-02T14:20:29.666Z,12.38
2022-11-02T14:23:40.149Z,12.35
2022-11-02T14:26:53.761Z,12.32
2022-11-02T14:29:55.727Z,12.28
2022-11-02T14:33:01.794Z,12.22
2022-11-02T14:36:06.787Z,12.18
2022-11-02T14:39:16.258Z,12.13
2022-11-02T14:42:29.897Z,12.07
2022-11-02T14:45:37.941Z,12.05
2022-11-02T14:48:44.813Z,12.03
2022-11-02T14:51:55.313Z,11.97
2022-11-02T14:55:03.130Z,11.92
2022-11-02T14:58:10.975Z,11.88
2022-11-02T15:01:14.711Z,11.84
2022-11-02T15:04:16.394Z,11.79
2022-11-02T15:07:20.834Z,11.72
2022-11-02T15:10:38.348Z,11.64
2022-11-02T15:13:47.825Z,11.57
2022-11-02T15:16:49.680Z,11.55
2022-11-02T15:19:53.791Z,11.51
2022-11-02T15:22:58.550Z,11.39
2022-11-02T15:26:05.160Z,11.36
2022-11-02T15:29:07.654Z,11.27
2022-11-02T15:32:17.053Z,11.27
2022-11-02T15:35:24.349Z,11.20
2022-11-02T15:38:32.606Z,11.11
2022-11-02T15:41:43.378Z,11.00
2022-11-02T15:45:20.070Z,10.92
2022-11-02T15:48:39.124Z,10.85
2022-11-02T15:51:49.186Z,10.83
2022-11-02T15:54:57.009Z,10.76
2022-11-02T15:58:03.931Z,10.76
2022-11-02T16:01:11.744Z,10.84
2022-11-02T16:04:18.868Z,10.80
2022-11-02T16:07:21.499Z,10.59
2022-11-02T16:10:25.667Z,10.57
2022-11-02T16:13:33.139Z,10.52
2022-11-02T16:16:48.027Z,10.51
2022-11-02T16:19:49.623Z,10.46
2022-11-02T16:22:53.388Z,10.40
2022-11-02T16:25:56.282Z,10.33
2022-11-02T16:29:09.425Z,10.31
2022-11-02T16:32:11.346Z,10.31
2022-11-02T16:35:14.106Z,10.23
2022-11-02T16:38:18.792Z,10.25
2022-11-02T16:41:20.588Z,10.31
2022-11-02T16:44:25.062Z,10.30
2022-11-02T16:47:34.625Z,10.27
2022-11-02T16:50:36.498Z,10.20
2022-11-02T16:53:38.879Z,10.13
2022-11-02T16:56:40.427Z,10.01
2022-11-02T16:59:52.415Z,9.94
2022-11-02T17:02:54.538Z,9.90
2022-11-02T17:05:56.960Z,9.84
2022-11-02T17:08:58.503Z,9.77
2022-11-02T17:12:05.661Z,9.69
2022-11-02T17:15:16.408Z,9.59
2022-11-02T17:18:25.846Z,9.64
2022-11-02T17:21:28.744Z,9.70
2022-11-02T17:24:31.226Z,9.73
2022-11-02T17:27:39.382Z,9.71
2022-11-02T17:30:45.701Z,9.68
2022-11-02T17:33:47.659Z,9.67
2022-11-02T17:36:49.791Z,9.76
2022-11-02T17:39:51.523Z,9.78
2022-11-02T17:42:58.932Z,9.81
2022-11-02T17:46:03.243Z,9.85
2022-11-02T17:49:04.787Z,9.77
2022-11-02T17:52:06.568Z,9.64
2022-11-02T17:55:13.100Z,9.55
2022-11-02T17:58:15.329Z,9.51
2022-11-02T18:01:18.727Z,9.47
2022-11-02T18:04:20.438Z,9.48
2022-11-02T18:07:22.322Z,9.52
2022-11-02T18:10:25.483Z,9.48
2022-11-02T18:13:27.337Z,9.40
2022-11-02T18:16:30.450Z,9.35
2022-11-02T18:19:33.340Z,9.35
2022-11-02T18:22:36.027Z,9.33
2022-11-02T18:25:39.588Z,9.29
2022-11-02T18:28:41.254Z,9.18
2022-11-02T18:31:44.455Z,9.08
2022-11-02T18:34:46.434Z,9.03
2022-11-02T18:37:48.275Z,9.04
2022-11-02T18:40:49.951Z,9.06
2022-11-02T18:43:51.790Z,9.06
2022-11-02T18:46:55.204Z,9.03
2022-11-02T18:49:56.758Z,8.91
2022-11-02T18:52:58.165Z,8.90
2022-11-02T18:56:02.478Z,8.92
2022-11-02T18:59:04.118Z,8.95
2022-11-02T19:02:07.408Z,8.89
2022-11-02T19:05:29.373Z,8.90
2022-11-02T19:08:49.465Z,8.90
2022-11-02T19:11:53.636Z,8.97
2022-11-02T19:14:55.366Z,9.02
2022-11-02T19:17:59.271Z,9.05
2022-11-02T19:21:00.836Z,9.13
2022-11-02T19:24:02.488Z,9.16
2022-11-02T19:27:04.128Z,9.18
2022-11-02T19:30:06.496Z,9.21
2022-11-02T19:33:09.528Z,9.22
2022-11-02T19:36:11.218Z,9.24
2022-11-02T19:39:15.737Z,9.24
2022-11-02T19:42:17.253Z,9.23
2022-11-02T19:45:18.747Z,9.26
2022-11-02T19:48:21.640Z,9.33
2022-11-02T19:51:23.995Z,9.34
2022-11-02T19:54:25.551Z,9.37
2022-11-02T19:57:30.675Z,9.37
2022-11-02T20:00:34.725Z,9.35
2022-11-02T20:03:38.303Z,9.33
2022-11-02T20:06:40.542Z,9.33
2022-11-02T20:09:43.977Z,9.35
2022-11-02T20:12:45.542Z,9.43
2022-11-02T20:15:47.603Z,9.42
2022-11-02T20:18:50.915Z,9.41
2022-11-02T20:21:52.656Z,9.43
2022-11-02T20:24:54.240Z,9.45
2022-11-02T20:27:55.714Z,9.44
2022-11-02T20:30:57.631Z,9.42
2022-11-02T20:34:00.993Z,9.41
2022-11-02T20:37:02.725Z,9.38
2022-11-02T20:40:04.501Z,9.33
2022-11-02T20:43:07.129Z,9.26
2022-11-02T20:46:35.868Z,9.24
2022-11-02T20:52:55.790Z,9.08
2022-11-02T20:56:00.991Z,9.02
2022-11-02T20:59:02.660Z,9.04
2022-11-02T21:02:04.359Z,8.97
2022-11-02T21:05:07.932Z,8.90
2022-11-02T21:08:09.595Z,8.86
2022-11-02T21:11:29.833Z,8.86
2022-11-02T21:14:31.991Z,8.87
2022-11-02T21:17:34.420Z,8.83
2022-11-02T21:20:37.462Z,8.78
2022-11-02T21:23:38.959Z,8.78
2022-11-02T21:26:40.642Z,8.74
2022-11-02T21:29:42.163Z,8.74
2022-11-02T21:32:43.808Z,8.71
2022-11-02T21:35:47.600Z,8.69
2022-11-02T21:38:49.135Z,8.73
2022-11-02T21:41:50.655Z,8.73
2022-11-02T21:44:52.246Z,8.66
2022-11-02T21:47:53.760Z,8.68
2022-11-02T21:51:00.491Z,8.67
2022-11-02T21:54:02.033Z,8.61
2022-11-02T21:57:03.856Z,8.55
2022-11-02T22:00:06.086Z,8.54
2022-11-02T22:03:07.796Z,8.49
2022-11-02T22:06:11.867Z,8.48
2022-11-02T22:09:13.761Z,8.43
2022-11-02T22:12:33.861Z,8.41
2022-11-02T22:15:38.286Z,8.38
2022-11-02T22:18:40.710Z,8.37
2022-11-02T22:21:44.398Z,8.35
2022-11-02T22:24:46.009Z,8.31
2022-11-02T22:27:47.666Z,8.33
2022-11-02T22:30:49.499Z,8.34
2022-11-02T22:33:52.309Z,8.38
2022-11-02T22:37:15.236Z,8.40
2022-11-02T22:40:16.927Z,8.34
2022-11-02T22:43:18.490Z,8.37
2022-11-02T22:46:20.316Z,8.38
2022-11-02T22:49:21.903Z,8.39
2022-11-02T22:52:25.462Z,8.37
2022-11-02T22:55:27.237Z,8.41
2022-11-02T22:58:30.323Z,8.38
2022-11-02T23:01:32.883Z,8.36
2022-11-02T23:04:34.901Z,8.37
2022-11-02T23:07:37.907Z,8.37
2022-11-02T23:10:58.110Z,8.39
2022-11-02T23:14:00.957Z,8.41
2022-11-02T23:17:02.677Z,8.46
2022-11-02T23:20:05.809Z,8.48
2022-11-02T23:23:29.608Z,8.53
2022-11-02T23:26:31.167Z,8.60
2022-11-02T23:29:51.417Z,8.65
2022-11-02T23:32:53.127Z,8.65
2022-11-02T23:36:13.467Z,8.62
2022-11-02T23:39:34.800Z,8.62
2022-11-02T23:42:37.313Z,8.61
2022-11-02T23:45:39.023Z,8.59
2022-11-02T23:48:41.348Z,8.61
2022-11-02T23:52:01.662Z,8.63
2022-11-02T23:55:23.912Z,8.61
2022-11-02T23:58:25.407Z,8.60
